createdAt,value
2018-12-18T00:01:06.689Z,52.13
2018-12-18T00:03:39.282Z,52.50
2018-12-18T00:06:04.271Z,55.47
2018-12-18T00:08:33.071Z,51.20
2018-12-18T00:11:04.152Z,54.00
2018-12-18T00:13:32.935Z,58.07
2018-12-18T00:16:01.732Z,58.60
2018-12-18T00:18:30.559Z,54.63
2018-12-18T00:20:59.340Z,52.70
2018-12-18T00:23:28.192Z,58.47
2018-12-18T00:25:56.979Z,56.70
2018-12-18T00:28:25.772Z,46.57
2018-12-18T00:30:54.598Z,55.03
2018-12-18T00:33:24.402Z,51.33
2018-12-18T00:35:54.401Z,51.57
2018-12-18T00:38:23.214Z,55.80
2018-12-18T00:40:52.038Z,58.70
2018-12-18T00:43:20.820Z,57.97
2018-12-18T00:45:49.620Z,50.63
2018-12-18T00:48:18.403Z,61.53
2018-12-18T00:50:47.207Z,59.43
2018-12-18T00:53:15.999Z,53.90
2018-12-18T00:55:44.778Z,55.13
2018-12-18T00:58:13.653Z,60.40
2018-12-18T01:00:42.448Z,58.90
2018-12-18T01:03:11.327Z,54.93
2018-12-18T01:05:40.099Z,70.10
2018-12-18T01:08:08.875Z,55.80
2018-12-18T01:10:37.657Z,64.27
2018-12-18T01:13:06.462Z,65.83
2018-12-18T01:15:35.247Z,61.63
2018-12-18T01:18:04.039Z,63.00
2018-12-18T01:20:32.832Z,67.37
2018-12-18T01:23:01.626Z,61.37
2018-12-18T01:25:30.428Z,51.93
2018-12-18T01:27:59.219Z,67.27
2018-12-18T01:30:27.995Z,51.87
2018-12-18T01:32:58.985Z,60.53
2018-12-18T01:35:27.816Z,66.90
2018-12-18T01:37:56.609Z,54.90
2018-12-18T01:40:25.395Z,54.27
2018-12-18T01:42:54.186Z,55.23
2018-12-18T01:45:23.026Z,58.80
2018-12-18T01:47:51.861Z,62.27
2018-12-18T01:50:20.642Z,59.80
2018-12-18T01:52:49.473Z,67.53
2018-12-18T01:55:18.267Z,60.50
2018-12-18T01:57:47.060Z,57.23
2018-12-18T02:00:15.855Z,66.90
2018-12-18T02:02:44.658Z,63.67
2018-12-18T02:05:13.503Z,63.17
2018-12-18T02:07:42.314Z,58.07
2018-12-18T02:10:11.131Z,63.93
2018-12-18T02:12:39.924Z,68.80
2018-12-18T02:15:08.703Z,71.33
2018-12-18T02:17:37.982Z,75.13
2018-12-18T02:20:07.999Z,67.77
2018-12-18T02:22:36.799Z,58.07
2018-12-18T02:25:07.420Z,55.30
2018-12-18T02:27:36.206Z,59.03
2018-12-18T02:30:05.921Z,66.40
2018-12-18T02:32:34.704Z,71.00
2018-12-18T02:35:03.552Z,55.63
2018-12-18T02:37:32.352Z,54.83
2018-12-18T02:40:01.141Z,56.10
2018-12-18T02:42:29.911Z,61.87
2018-12-18T02:44:58.685Z,73.70
2018-12-18T02:47:27.467Z,66.77
2018-12-18T02:49:56.255Z,52.13
2018-12-18T02:52:25.137Z,55.37
2018-12-18T02:54:53.916Z,69.93
2018-12-18T02:57:22.755Z,51.70
2018-12-18T02:59:51.539Z,58.83
2018-12-18T03:02:20.423Z,64.43
2018-12-18T03:04:49.738Z,57.07
2018-12-18T03:07:18.552Z,53.60
2018-12-18T03:09:47.336Z,52.17
2018-12-18T03:12:16.144Z,51.27
2018-12-18T03:14:44.984Z,57.50
2018-12-18T03:17:14.474Z,48.73
2018-12-18T03:19:43.888Z,55.60
2018-12-18T03:22:12.703Z,55.53
2018-12-18T03:24:41.490Z,43.93
2018-12-18T03:27:10.335Z,51.27
2018-12-18T03:29:39.119Z,55.83
2018-12-18T03:32:12.145Z,47.20
2018-12-18T03:34:40.939Z,42.67
2018-12-18T03:37:09.751Z,48.03
2018-12-18T03:39:38.562Z,48.63
2018-12-18T03:42:07.370Z,53.90
2018-12-18T03:44:36.267Z,46.13
2018-12-18T03:47:05.377Z,46.73
2018-12-18T03:49:34.219Z,48.23
2018-12-18T03:52:02.994Z,41.07
2018-12-18T03:54:31.779Z,42.33
2018-12-18T03:57:00.899Z,40.10
2018-12-18T03:59:29.619Z,40.83
2018-12-18T04:01:58.426Z,38.70
2018-12-18T04:04:27.227Z,39.50
2018-12-18T04:06:56.018Z,36.17
2018-12-18T04:09:24.802Z,37.10
2018-12-18T04:11:59.059Z,38.07
2018-12-18T04:14:27.868Z,30.40
2018-12-18T04:16:56.652Z,38.90
2018-12-18T04:19:25.471Z,36.43
2018-12-18T04:21:54.233Z,36.90
2018-12-18T04:24:23.096Z,35.43
2018-12-18T04:26:51.971Z,33.33
2018-12-18T04:29:20.775Z,38.97
2018-12-18T04:31:49.565Z,34.73
2018-12-18T04:34:18.375Z,29.43
2018-12-18T04:36:47.172Z,48.40
2018-12-18T04:39:15.972Z,34.93
2018-12-18T04:41:44.769Z,38.80
2018-12-18T04:44:13.559Z,32.10
2018-12-18T04:46:42.352Z,35.77
2018-12-18T04:49:11.161Z,44.50
2018-12-18T04:51:40.028Z,39.67
2018-12-18T04:54:08.922Z,38.93
2018-12-18T04:56:37.829Z,32.50
2018-12-18T04:59:06.661Z,37.30
2018-12-18T05:01:35.458Z,37.60
2018-12-18T05:04:04.252Z,33.90
2018-12-18T05:06:33.139Z,36.67
2018-12-18T05:09:01.932Z,33.97
2018-12-18T05:11:30.873Z,27.13
2018-12-18T05:13:59.695Z,27.50
2018-12-18T05:16:28.491Z,27.87
2018-12-18T05:18:57.276Z,34.50
2018-12-18T05:21:26.087Z,25.40
2018-12-18T05:23:54.870Z,31.93
2018-12-18T05:26:23.708Z,25.43
2018-12-18T05:28:52.490Z,26.77
2018-12-18T05:31:21.288Z,34.97
2018-12-18T05:33:50.101Z,31.10
2018-12-18T05:36:18.947Z,28.00
2018-12-18T05:38:47.759Z,24.60
2018-12-18T05:41:16.571Z,28.00
2018-12-18T05:43:45.427Z,31.30
2018-12-18T05:46:14.238Z,32.17
2018-12-18T05:48:43.014Z,27.10
2018-12-18T05:51:11.793Z,29.30
2018-12-18T05:53:40.576Z,27.77
2018-12-18T05:56:09.374Z,33.97
2018-12-18T05:58:38.251Z,33.53
2018-12-18T06:01:07.038Z,30.97
2018-12-18T06:03:35.937Z,30.87
2018-12-18T06:06:04.900Z,26.23
2018-12-18T06:08:33.519Z,24.47
2018-12-18T06:11:02.318Z,29.70
2018-12-18T06:13:31.099Z,24.90
2018-12-18T06:15:59.870Z,28.73
2018-12-18T06:18:28.668Z,25.17
2018-12-18T06:20:57.511Z,29.30
2018-12-18T06:23:26.316Z,29.80
2018-12-18T06:25:55.140Z,31.23
2018-12-18T06:28:23.982Z,27.87
2018-12-18T06:30:52.770Z,36.37
2018-12-18T06:33:21.617Z,35.00
2018-12-18T06:35:50.459Z,27.70
2018-12-18T06:38:19.262Z,27.50
2018-12-18T06:40:48.058Z,33.20
2018-12-18T06:43:16.899Z,25.33
2018-12-18T06:45:45.687Z,31.37
2018-12-18T06:48:14.475Z,36.67
2018-12-18T06:50:43.281Z,35.37
2018-12-18T06:53:12.084Z,24.73
2018-12-18T06:55:40.871Z,29.00
2018-12-18T06:58:09.671Z,24.40
2018-12-18T07:00:38.480Z,20.77
2018-12-18T07:03:07.285Z,33.40
2018-12-18T07:05:36.178Z,21.43
2018-12-18T07:08:04.983Z,30.77
2018-12-18T07:10:33.781Z,27.20
2018-12-18T07:13:02.556Z,19.30
2018-12-18T07:15:31.394Z,36.23
2018-12-18T07:18:00.196Z,29.70
2018-12-18T07:20:28.972Z,22.00
2018-12-18T07:22:57.798Z,22.53
2018-12-18T07:25:26.577Z,27.07
2018-12-18T07:27:55.363Z,25.27
2018-12-18T07:30:24.198Z,25.23
2018-12-18T07:32:52.992Z,36.83
2018-12-18T07:35:23.397Z,30.87
2018-12-18T07:37:50.726Z,27.60
2018-12-18T07:40:19.479Z,33.93
2018-12-18T07:42:48.280Z,25.70
2018-12-18T07:45:17.075Z,20.90
2018-12-18T07:47:45.878Z,28.80
2018-12-18T07:50:14.671Z,30.47
2018-12-18T07:52:43.452Z,26.77
2018-12-18T07:55:12.241Z,30.30
2018-12-18T07:57:41.036Z,28.27
2018-12-18T08:00:09.881Z,30.60
2018-12-18T08:02:38.654Z,21.23
2018-12-18T08:05:08.088Z,28.43
2018-12-18T08:07:36.846Z,26.40
2018-12-18T08:10:05.885Z,28.30
2018-12-18T08:12:34.680Z,32.30
2018-12-18T08:15:03.494Z,23.40
2018-12-18T08:17:32.310Z,32.33
2018-12-18T08:20:01.082Z,25.87
2018-12-18T08:22:29.976Z,22.90
2018-12-18T08:24:58.769Z,26.97
2018-12-18T08:27:27.564Z,22.90
2018-12-18T08:29:56.399Z,25.20
2018-12-18T08:32:25.204Z,27.83
2018-12-18T08:34:53.998Z,29.40
2018-12-18T08:37:22.855Z,29.47
2018-12-18T08:39:51.652Z,18.93
2018-12-18T08:42:21.579Z,23.30
2018-12-18T08:44:50.390Z,33.83
2018-12-18T08:47:19.191Z,26.30
2018-12-18T08:49:48.938Z,22.33
2018-12-18T08:52:17.728Z,21.27
2018-12-18T08:54:46.528Z,35.07
2018-12-18T08:57:15.307Z,21.03
2018-12-18T08:59:44.167Z,21.50
2018-12-18T09:02:12.940Z,25.43
2018-12-18T09:04:42.398Z,21.40
2018-12-18T09:07:11.196Z,20.40
2018-12-18T09:09:39.974Z,25.50
2018-12-18T09:12:12.951Z,21.60
2018-12-18T09:14:45.918Z,29.97
2018-12-18T09:17:18.871Z,18.67
2018-12-18T09:19:47.642Z,22.87
2018-12-18T09:22:16.466Z,18.57
2018-12-18T09:24:45.246Z,22.53
2018-12-18T09:27:14.059Z,20.40
2018-12-18T09:29:42.846Z,19.23
2018-12-18T09:32:11.663Z,31.03
2018-12-18T09:34:40.476Z,25.03
2018-12-18T09:37:09.312Z,20.47
2018-12-18T09:39:42.645Z,19.87
2018-12-18T09:42:17.070Z,18.03
2018-12-18T09:44:45.872Z,19.47
2018-12-18T09:47:14.689Z,19.20
2018-12-18T09:49:43.480Z,16.40
2018-12-18T09:52:12.285Z,16.00
2018-12-18T09:54:41.096Z,19.17
2018-12-18T09:57:15.302Z,12.20
2018-12-18T09:59:44.104Z,16.30
2018-12-18T10:02:12.984Z,14.60
2018-12-18T10:04:41.774Z,18.23
2018-12-18T10:07:10.553Z,14.03
2018-12-18T10:09:39.336Z,15.57
2018-12-18T10:12:08.174Z,16.60
2018-12-18T10:14:36.951Z,12.63
2018-12-18T10:17:05.738Z,10.53
2018-12-18T10:19:34.516Z,11.40
2018-12-18T10:22:03.320Z,14.07
2018-12-18T10:24:32.107Z,16.30
2018-12-18T10:27:00.891Z,15.57
2018-12-18T10:29:29.993Z,15.63
2018-12-18T10:31:58.547Z,14.73
2018-12-18T10:34:27.347Z,16.40
2018-12-18T10:36:56.132Z,17.33
2018-12-18T10:39:24.936Z,16.17
2018-12-18T10:41:53.728Z,20.53
2018-12-18T10:44:22.516Z,16.37
2018-12-18T10:46:51.303Z,17.00
2018-12-18T10:49:20.090Z,12.87
2018-12-18T10:51:48.918Z,10.23
2018-12-18T10:54:17.714Z,12.00
2018-12-18T10:56:48.604Z,13.37
2018-12-18T10:59:17.370Z,16.80
2018-12-18T11:01:48.540Z,14.40
2018-12-18T11:04:17.367Z,14.27
2018-12-18T11:06:46.144Z,13.93
2018-12-18T11:09:14.938Z,12.43
2018-12-18T11:11:43.710Z,12.73
2018-12-18T11:14:13.411Z,12.83
2018-12-18T11:16:42.209Z,12.10
2018-12-18T11:19:10.998Z,16.10
2018-12-18T11:21:39.814Z,22.60
2018-12-18T11:24:08.682Z,16.20
2018-12-18T11:26:37.478Z,12.83
2018-12-18T11:29:06.399Z,19.70
2018-12-18T11:31:35.198Z,10.77
2018-12-18T11:34:03.986Z,16.20
2018-12-18T11:36:32.825Z,18.90
2018-12-18T11:39:01.617Z,14.67
2018-12-18T11:41:30.486Z,14.60
2018-12-18T11:43:59.297Z,19.67
2018-12-18T11:46:28.167Z,15.70
2018-12-18T11:48:57.006Z,14.83
2018-12-18T11:51:25.798Z,20.67
2018-12-18T11:53:54.598Z,14.97
2018-12-18T11:56:23.458Z,22.30
2018-12-18T11:58:52.246Z,13.13
2018-12-18T12:01:21.089Z,16.07
2018-12-18T12:03:49.853Z,15.47
2018-12-18T12:06:23.004Z,16.47
2018-12-18T12:08:47.516Z,16.90
2018-12-18T12:11:16.306Z,15.23
2018-12-18T12:13:45.104Z,15.87
2018-12-18T12:16:13.895Z,11.53
2018-12-18T12:18:42.746Z,11.60
2018-12-18T12:21:11.548Z,10.73
2018-12-18T12:23:40.344Z,15.97
2018-12-18T12:26:14.600Z,15.03
2018-12-18T12:28:43.363Z,13.43
2018-12-18T12:31:13.861Z,14.50
2018-12-18T12:33:45.928Z,14.97
2018-12-18T12:36:14.738Z,15.53
2018-12-18T12:38:43.541Z,12.17
2018-12-18T12:41:12.370Z,15.37
2018-12-18T12:43:41.170Z,15.80
2018-12-18T12:46:09.964Z,17.43
2018-12-18T12:48:44.106Z,11.13
2018-12-18T12:51:12.880Z,14.33
2018-12-18T12:53:41.692Z,13.57
2018-12-18T12:56:10.564Z,18.37
2018-12-18T12:58:39.389Z,17.83
2018-12-18T13:01:08.198Z,10.70
2018-12-18T13:03:37.032Z,9.13
2018-12-18T13:06:06.898Z,16.77
2018-12-18T13:08:35.719Z,21.77
2018-12-18T13:11:04.588Z,17.33
2018-12-18T13:13:33.407Z,9.33
2018-12-18T13:16:02.191Z,16.27
2018-12-18T13:18:31.045Z,16.13
2018-12-18T13:20:59.812Z,15.03
2018-12-18T13:23:28.652Z,12.50
2018-12-18T13:25:57.429Z,13.57
2018-12-18T13:28:27.433Z,14.67
2018-12-18T13:30:56.993Z,18.20
2018-12-18T13:33:26.662Z,17.67
2018-12-18T13:35:55.498Z,16.27
2018-12-18T13:38:24.309Z,13.83
2018-12-18T13:40:53.094Z,15.37
2018-12-18T13:43:21.928Z,15.77
2018-12-18T13:45:50.715Z,14.07
2018-12-18T13:48:19.512Z,18.43
2018-12-18T13:50:48.867Z,17.07
2018-12-18T13:53:18.068Z,25.53
2018-12-18T13:55:46.897Z,17.67
2018-12-18T13:58:15.685Z,12.67
2018-12-18T14:00:44.594Z,13.40
2018-12-18T14:03:13.404Z,13.83
2018-12-18T14:05:42.185Z,16.53
2018-12-18T14:08:10.998Z,20.23
2018-12-18T14:10:40.933Z,16.23
2018-12-18T14:13:09.746Z,18.27
2018-12-18T14:15:38.510Z,20.20
2018-12-18T14:18:07.303Z,35.07
2018-12-18T14:20:36.184Z,29.60
2018-12-18T14:23:04.954Z,24.03
2018-12-18T14:25:33.759Z,21.07
2018-12-18T14:28:02.548Z,25.50
2018-12-18T14:30:31.392Z,22.37
2018-12-18T14:33:00.206Z,22.67
2018-12-18T14:35:28.991Z,24.23
2018-12-18T14:37:57.853Z,20.20
2018-12-18T14:40:26.673Z,20.47
2018-12-18T14:42:55.463Z,18.23
2018-12-18T14:45:24.256Z,22.47
2018-12-18T14:47:53.053Z,20.17
2018-12-18T14:50:21.918Z,18.60
2018-12-18T14:52:50.812Z,14.87
2018-12-18T14:55:20.583Z,18.20
2018-12-18T14:57:49.368Z,23.70
2018-12-18T15:00:18.180Z,18.67
2018-12-18T15:02:47.009Z,13.53
2018-12-18T15:05:15.786Z,24.03
2018-12-18T15:07:51.331Z,25.40
2018-12-18T15:10:20.140Z,20.87
2018-12-18T15:12:50.205Z,15.93
2018-12-18T15:15:19.250Z,19.07
2018-12-18T15:17:48.037Z,19.53
2018-12-18T15:20:16.849Z,25.77
2018-12-18T15:22:45.642Z,19.37
2018-12-18T15:25:14.436Z,26.53
2018-12-18T15:27:43.227Z,20.87
2018-12-18T15:30:12.051Z,25.37
2018-12-18T15:32:40.836Z,24.40
2018-12-18T15:35:09.617Z,25.43
2018-12-18T15:37:38.403Z,23.30
2018-12-18T15:40:07.210Z,22.07
2018-12-18T15:42:35.997Z,22.57
2018-12-18T15:45:04.847Z,24.43
2018-12-18T15:47:33.638Z,20.33
2018-12-18T15:50:02.532Z,19.30
2018-12-18T15:52:31.346Z,21.57
2018-12-18T15:55:00.086Z,29.93
2018-12-18T15:57:28.893Z,22.10
2018-12-18T15:59:57.680Z,26.70
2018-12-18T16:02:26.484Z,24.00
2018-12-18T16:04:55.269Z,20.73
2018-12-18T16:07:24.059Z,25.63
2018-12-18T16:09:52.843Z,29.57
2018-12-18T16:12:21.679Z,17.23
2018-12-18T16:14:50.503Z,24.97
2018-12-18T16:17:19.368Z,16.83
2018-12-18T16:19:48.286Z,22.20
2018-12-18T16:22:17.150Z,26.47
2018-12-18T16:24:46.064Z,21.30
2018-12-18T16:27:14.911Z,27.67
2018-12-18T16:29:43.679Z,29.83
2018-12-18T16:32:12.518Z,22.60
2018-12-18T16:34:41.309Z,24.90
2018-12-18T16:37:10.907Z,22.43
2018-12-18T16:39:39.719Z,20.37
2018-12-18T16:42:08.524Z,17.93
2018-12-18T16:44:37.311Z,22.97
2018-12-18T16:47:06.143Z,22.93
2018-12-18T16:49:34.958Z,21.60
2018-12-18T16:52:04.396Z,15.57
2018-12-18T16:54:33.208Z,25.73
2018-12-18T16:57:03.267Z,18.77
2018-12-18T16:59:32.094Z,25.13
2018-12-18T17:02:00.910Z,26.83
2018-12-18T17:04:34.193Z,26.13
2018-12-18T17:07:02.984Z,20.43
2018-12-18T17:09:31.789Z,22.63
2018-12-18T17:12:00.580Z,16.80
2018-12-18T17:14:30.032Z,15.33
2018-12-18T17:17:00.228Z,19.27
2018-12-18T17:19:29.898Z,19.43
2018-12-18T17:21:58.800Z,21.73
2018-12-18T17:24:27.631Z,15.20
2018-12-18T17:26:56.424Z,21.30
2018-12-18T17:29:25.225Z,23.77
2018-12-18T17:31:54.014Z,20.53
2018-12-18T17:34:22.839Z,23.73
2018-12-18T17:36:52.591Z,18.47
2018-12-18T17:39:21.399Z,15.67
2018-12-18T17:41:50.180Z,18.50
2018-12-18T17:44:18.979Z,23.13
2018-12-18T17:46:47.767Z,15.07
2018-12-18T17:49:16.559Z,18.97
2018-12-18T17:51:45.392Z,26.87
2018-12-18T17:54:14.167Z,21.00
2018-12-18T17:56:42.968Z,17.17
2018-12-18T17:59:11.767Z,20.23
2018-12-18T18:01:40.575Z,13.73
2018-12-18T18:04:09.345Z,13.67
2018-12-18T18:06:38.149Z,17.83
2018-12-18T18:09:08.839Z,14.07
2018-12-18T18:11:37.738Z,17.30
2018-12-18T18:14:06.507Z,17.37
2018-12-18T18:16:35.392Z,17.43
2018-12-18T18:19:04.187Z,12.07
2018-12-18T18:21:33.027Z,12.20
2018-12-18T18:24:01.824Z,11.60
2018-12-18T18:26:30.619Z,11.53
2018-12-18T18:28:59.468Z,10.77
2018-12-18T18:31:28.335Z,15.43
2018-12-18T18:33:57.146Z,11.07
2018-12-18T18:36:25.930Z,14.90
2018-12-18T18:38:54.712Z,17.60
2018-12-18T18:41:23.514Z,13.73
2018-12-18T18:43:52.414Z,22.70
2018-12-18T18:46:21.183Z,11.83
2018-12-18T18:48:49.960Z,10.73
2018-12-18T18:51:18.735Z,27.43
2018-12-18T18:53:47.540Z,12.00
2018-12-18T18:56:16.352Z,10.97
2018-12-18T18:58:45.141Z,15.80
2018-12-18T19:01:15.156Z,19.70
2018-12-18T19:03:43.998Z,12.97
2018-12-18T19:06:12.787Z,14.67
2018-12-18T19:08:41.582Z,19.47
2018-12-18T19:11:10.373Z,18.23
2018-12-18T19:13:40.529Z,12.30
2018-12-18T19:16:08.007Z,12.23
2018-12-18T19:18:36.953Z,12.60
2018-12-18T19:21:05.760Z,13.07
2018-12-18T19:23:34.543Z,15.07
2018-12-18T19:26:03.351Z,16.37
2018-12-18T19:28:32.212Z,18.33
2018-12-18T19:31:01.015Z,16.90
2018-12-18T19:33:29.945Z,11.53
2018-12-18T19:35:58.730Z,16.90
2018-12-18T19:38:27.591Z,16.33
2018-12-18T19:40:56.365Z,10.43
2018-12-18T19:43:25.264Z,12.87
2018-12-18T19:45:54.038Z,15.30
2018-12-18T19:48:22.928Z,10.83
2018-12-18T19:50:51.733Z,13.97
2018-12-18T19:53:20.551Z,17.20
2018-12-18T19:55:49.479Z,21.90
2018-12-18T19:58:18.288Z,14.37
2018-12-18T20:00:47.086Z,15.13
2018-12-18T20:03:15.878Z,15.77
2018-12-18T20:05:44.703Z,18.70
2018-12-18T20:08:13.533Z,16.83
2018-12-18T20:10:42.345Z,12.37
2018-12-18T20:13:11.143Z,15.70
2018-12-18T20:15:39.941Z,18.50
2018-12-18T20:18:08.734Z,15.53
2018-12-18T20:20:37.580Z,14.33
2018-12-18T20:23:06.372Z,17.07
2018-12-18T20:25:35.155Z,20.47
2018-12-18T20:28:03.947Z,15.50
2018-12-18T20:30:32.831Z,16.23
2018-12-18T20:33:01.616Z,19.90
2018-12-18T20:35:30.404Z,16.97
2018-12-18T20:37:59.275Z,19.87
2018-12-18T20:40:28.114Z,17.53
2018-12-18T20:42:56.903Z,19.03
2018-12-18T20:45:25.687Z,27.50
2018-12-18T20:47:54.587Z,20.30
2018-12-18T20:50:23.427Z,20.43
2018-12-18T20:52:52.226Z,25.17
2018-12-18T20:55:21.103Z,20.33
2018-12-18T20:57:49.859Z,18.27
2018-12-18T21:00:18.696Z,17.93
2018-12-18T21:02:47.482Z,18.87
2018-12-18T21:05:16.269Z,20.30
2018-12-18T21:07:45.059Z,24.50
2018-12-18T21:10:13.856Z,21.53
2018-12-18T21:12:42.758Z,20.77
2018-12-18T21:15:11.516Z,19.50
2018-12-18T21:17:40.293Z,18.13
2018-12-18T21:20:09.127Z,18.57
2018-12-18T21:22:37.979Z,20.97
2018-12-18T21:25:07.577Z,17.63
2018-12-18T21:27:36.364Z,19.93
2018-12-18T21:30:05.954Z,21.47
2018-12-18T21:32:34.738Z,22.03
2018-12-18T21:35:03.752Z,22.80
2018-12-18T21:37:32.562Z,23.20
2018-12-18T21:40:01.359Z,19.87
2018-12-18T21:42:30.146Z,20.13
2018-12-18T21:44:58.950Z,20.47
2018-12-18T21:47:27.728Z,19.17
2018-12-18T21:49:56.515Z,37.13
2018-12-18T21:52:25.306Z,21.60
2018-12-18T21:54:54.083Z,20.37
2018-12-18T21:57:22.915Z,18.70
2018-12-18T21:59:51.720Z,19.57
2018-12-18T22:02:20.666Z,24.03
2018-12-18T22:04:49.456Z,16.30
2018-12-18T22:07:18.241Z,21.03
2018-12-18T22:09:47.047Z,19.77
2018-12-18T22:12:15.848Z,21.00
2018-12-18T22:14:44.688Z,19.73
2018-12-18T22:17:13.473Z,15.60
2018-12-18T22:19:42.268Z,21.40
2018-12-18T22:22:11.058Z,18.80
2018-12-18T22:24:39.838Z,17.90
2018-12-18T22:27:08.648Z,17.90
2018-12-18T22:29:37.428Z,22.67
2018-12-18T22:32:06.238Z,20.77
2018-12-18T22:34:35.930Z,17.00
2018-12-18T22:37:04.718Z,19.67
2018-12-18T22:39:33.482Z,19.03
2018-12-18T22:42:02.267Z,18.40
2018-12-18T22:44:31.078Z,23.30
2018-12-18T22:46:59.870Z,19.43
2018-12-18T22:49:28.677Z,16.50
2018-12-18T22:51:57.472Z,18.53
2018-12-18T22:54:26.256Z,19.40
2018-12-18T22:56:55.046Z,19.93
2018-12-18T22:59:23.892Z,17.93
2018-12-18T23:01:52.717Z,17.03
2018-12-18T23:04:21.510Z,14.27
2018-12-18T23:06:50.564Z,19.70
2018-12-18T23:09:20.303Z,24.20
2018-12-18T23:11:49.086Z,21.30
2018-12-18T23:14:17.879Z,19.23
2018-12-18T23:16:47.651Z,17.83
2018-12-18T23:19:16.461Z,19.47
2018-12-18T23:21:45.324Z,18.03
2018-12-18T23:24:14.220Z,19.53
2018-12-18T23:26:43.032Z,15.33
2018-12-18T23:29:11.834Z,20.03
2018-12-18T23:31:41.097Z,14.27
2018-12-18T23:34:09.935Z,19.07
2018-12-18T23:36:38.887Z,16.57
2018-12-18T23:39:08.521Z,18.27
2018-12-18T23:41:37.317Z,18.27
2018-12-18T23:44:06.093Z,14.37
2018-12-18T23:46:34.933Z,20.00
2018-12-18T23:49:03.739Z,15.03
2018-12-18T23:51:32.609Z,20.17
2018-12-18T23:54:02.208Z,16.60
2018-12-18T23:56:31.068Z,18.13
2018-12-18T23:59:00.783Z,16.47
